sensor_id;sensor_type;location;lat;lon;timestamp;P1;durP1;ratioP1;P2;durP2;ratioP2
31224;SDS011;17847;31.524;74.366;2022-12-28T00:01:28;251.82;;;141.63;;
31224;SDS011;17847;31.524;74.366;2022-12-28T00:04:13;244.68;;;136.77;;
31224;SDS011;17847;31.524;74.366;2022-12-28T00:07:02;236.15;;;138.02;;
31224;SDS011;17847;31.524;74.366;2022-12-28T00:09:45;227.75;;;132.48;;
31224;SDS011;17847;31.524;74.366;2022-12-28T00:12:33;228.82;;;131.82;;
31224;SDS011;17847;31.524;74.366;2022-12-28T00:15:16;224.90;;;132.02;;
31224;SDS011;17847;31.524;74.366;2022-12-28T00:18:04;222.00;;;132.48;;
31224;SDS011;17847;31.524;74.366;2022-12-28T00:20:56;223.43;;;133.75;;
31224;SDS011;17847;31.524;74.366;2022-12-28T00:23:51;219.23;;;130.52;;
31224;SDS011;17847;31.524;74.366;2022-12-28T00:26:35;232.68;;;132.95;;
31224;SDS011;17847;31.524;74.366;2022-12-28T00:29:23;228.77;;;132.77;;
31224;SDS011;17847;31.524;74.366;2022-12-28T00:32:06;240.43;;;140.43;;
31224;SDS011;17847;31.524;74.366;2022-12-28T00:35:01;238.65;;;134.85;;
31224;SDS011;17847;31.524;74.366;2022-12-28T00:37:37;246.70;;;139.05;;
31224;SDS011;17847;31.524;74.366;2022-12-28T00:40:32;229.15;;;134.35;;
31224;SDS011;17847;31.524;74.366;2022-12-28T00:43:14;240.93;;;135.75;;
31224;SDS011;17847;31.524;74.366;2022-12-28T00:46:04;235.95;;;132.82;;
31224;SDS011;17847;31.524;74.366;2022-12-28T00:48:40;225.30;;;131.30;;
31224;SDS011;17847;31.524;74.366;2022-12-28T00:51:35;238.30;;;135.63;;
31224;SDS011;17847;31.524;74.366;2022-12-28T00:54:23;235.55;;;132.38;;
31224;SDS011;17847;31.524;74.366;2022-12-28T00:57:07;219.95;;;131.27;;
31224;SDS011;17847;31.524;74.366;2022-12-28T00:59:55;224.93;;;130.95;;
31224;SDS011;17847;31.524;74.366;2022-12-28T01:02:38;229.27;;;134.15;;
31224;SDS011;17847;31.524;74.366;2022-12-28T01:05:26;231.20;;;132.55;;
31224;SDS011;17847;31.524;74.366;2022-12-28T01:08:09;229.18;;;134.07;;
31224;SDS011;17847;31.524;74.366;2022-12-28T01:11:08;233.75;;;131.90;;
31224;SDS011;17847;31.524;74.366;2022-12-28T01:13:54;227.25;;;130.90;;
31224;SDS011;17847;31.524;74.366;2022-12-28T01:16:44;237.63;;;132.38;;
31224;SDS011;17847;31.524;74.366;2022-12-28T01:19:29;229.38;;;133.02;;
31224;SDS011;17847;31.524;74.366;2022-12-28T01:22:17;220.35;;;129.77;;
31224;SDS011;17847;31.524;74.366;2022-12-28T01:25:00;226.20;;;133.13;;
31224;SDS011;17847;31.524;74.366;2022-12-28T01:27:48;225.50;;;133.10;;
31224;SDS011;17847;31.524;74.366;2022-12-28T01:30:31;217.82;;;130.60;;
31224;SDS011;17847;31.524;74.366;2022-12-28T01:33:20;224.15;;;128.57;;
31224;SDS011;17847;31.524;74.366;2022-12-28T01:36:06;230.52;;;134.50;;
31224;SDS011;17847;31.524;74.366;2022-12-28T01:38:57;233.15;;;136.02;;
31224;SDS011;17847;31.524;74.366;2022-12-28T01:41:42;234.52;;;135.63;;
31224;SDS011;17847;31.524;74.366;2022-12-28T01:44:40;224.18;;;130.70;;
31224;SDS011;17847;31.524;74.366;2022-12-28T01:47:20;223.55;;;128.02;;
31224;SDS011;17847;31.524;74.366;2022-12-28T01:50:24;219.45;;;125.60;;
31224;SDS011;17847;31.524;74.366;2022-12-28T01:53:02;198.90;;;116.15;;
31224;SDS011;17847;31.524;74.366;2022-12-28T01:55:59;203.23;;;117.90;;
31224;SDS011;17847;31.524;74.366;2022-12-28T01:58:56;194.55;;;117.85;;
31224;SDS011;17847;31.524;74.366;2022-12-28T02:01:40;190.00;;;107.82;;
31224;SDS011;17847;31.524;74.366;2022-12-28T02:04:28;171.77;;;104.20;;
31224;SDS011;17847;31.524;74.366;2022-12-28T02:07:12;175.65;;;103.00;;
31224;SDS011;17847;31.524;74.366;2022-12-28T02:10:05;166.52;;;103.10;;
31224;SDS011;17847;31.524;74.366;2022-12-28T02:13:09;171.88;;;102.25;;
31224;SDS011;17847;31.524;74.366;2022-12-28T02:16:02;214.27;;;120.00;;
31224;SDS011;17847;31.524;74.366;2022-12-28T02:18:46;271.58;;;137.05;;
31224;SDS011;17847;31.524;74.366;2022-12-28T02:30:54;493.98;;;235.95;;
31224;SDS011;17847;31.524;74.366;2022-12-28T02:36:49;508.13;;;236.02;;
31224;SDS011;17847;31.524;74.366;2022-12-28T02:40:24;499.85;;;232.27;;
31224;SDS011;17847;31.524;74.366;2022-12-28T02:42:50;508.77;;;233.75;;
31224;SDS011;17847;31.524;74.366;2022-12-28T02:45:45;512.17;;;244.27;;
31224;SDS011;17847;31.524;74.366;2022-12-28T02:48:47;530.42;;;249.85;;
31224;SDS011;17847;31.524;74.366;2022-12-28T03:04:35;511.58;;;238.35;;
31224;SDS011;17847;31.524;74.366;2022-12-28T03:07:46;535.88;;;245.85;;
31224;SDS011;17847;31.524;74.366;2022-12-28T03:11:04;504.83;;;238.65;;
31224;SDS011;17847;31.524;74.366;2022-12-28T03:13:57;531.45;;;243.98;;
31224;SDS011;17847;31.524;74.366;2022-12-28T03:16:50;533.65;;;251.55;;
31224;SDS011;17847;31.524;74.366;2022-12-28T03:19:56;543.83;;;253.75;;
31224;SDS011;17847;31.524;74.366;2022-12-28T03:23:09;527.20;;;240.35;;
31224;SDS011;17847;31.524;74.366;2022-12-28T03:26:13;509.77;;;237.10;;
31224;SDS011;17847;31.524;74.366;2022-12-28T03:29:27;498.77;;;235.15;;
31224;SDS011;17847;31.524;74.366;2022-12-28T03:32:32;514.92;;;241.77;;
31224;SDS011;17847;31.524;74.366;2022-12-28T03:35:26;517.03;;;237.10;;
31224;SDS011;17847;31.524;74.366;2022-12-28T03:38:16;513.28;;;244.82;;
31224;SDS011;17847;31.524;74.366;2022-12-28T03:41:23;547.10;;;266.15;;
31224;SDS011;17847;31.524;74.366;2022-12-28T03:44:26;561.83;;;264.35;;
31224;SDS011;17847;31.524;74.366;2022-12-28T03:47:20;540.78;;;258.52;;
31224;SDS011;17847;31.524;74.366;2022-12-28T03:50:08;585.15;;;285.45;;
31224;SDS011;17847;31.524;74.366;2022-12-28T03:52:58;605.38;;;286.17;;
31224;SDS011;17847;31.524;74.366;2022-12-28T03:55:36;612.60;;;292.77;;
31224;SDS011;17847;31.524;74.366;2022-12-28T03:58:31;548.55;;;259.95;;
31224;SDS011;17847;31.524;74.366;2022-12-28T04:01:07;545.60;;;252.53;;
31224;SDS011;17847;31.524;74.366;2022-12-28T04:04:03;501.00;;;235.80;;
31224;SDS011;17847;31.524;74.366;2022-12-28T04:06:39;466.35;;;218.65;;
31224;SDS011;17847;31.524;74.366;2022-12-28T04:09:35;464.15;;;214.80;;
31224;SDS011;17847;31.524;74.366;2022-12-28T04:12:17;459.40;;;209.40;;
31224;SDS011;17847;31.524;74.366;2022-12-28T04:15:26;448.55;;;205.65;;
31224;SDS011;17847;31.524;74.366;2022-12-28T04:18:02;458.45;;;208.93;;
31224;SDS011;17847;31.524;74.366;2022-12-28T04:20:59;437.13;;;204.73;;
31224;SDS011;17847;31.524;74.366;2022-12-28T04:23:43;438.50;;;199.00;;
31224;SDS011;17847;31.524;74.366;2022-12-28T04:26:32;428.63;;;203.68;;
31224;SDS011;17847;31.524;74.366;2022-12-28T04:29:15;444.65;;;204.00;;
31224;SDS011;17847;31.524;74.366;2022-12-28T04:32:16;434.27;;;200.20;;
31224;SDS011;17847;31.524;74.366;2022-12-28T04:34:52;436.67;;;201.40;;
31224;SDS011;17847;31.524;74.366;2022-12-28T04:37:53;418.88;;;190.65;;
31224;SDS011;17847;31.524;74.366;2022-12-28T04:40:36;410.98;;;183.95;;
31224;SDS011;17847;31.524;74.366;2022-12-28T04:43:24;432.15;;;196.90;;
31224;SDS011;17847;31.524;74.366;2022-12-28T04:46:09;455.67;;;207.50;;
31224;SDS011;17847;31.524;74.366;2022-12-28T04:48:59;451.63;;;200.50;;
31224;SDS011;17847;31.524;74.366;2022-12-28T04:51:42;452.67;;;200.10;;
31224;SDS011;17847;31.524;74.366;2022-12-28T04:54:37;433.88;;;196.38;;
31224;SDS011;17847;31.524;74.366;2022-12-28T04:57:20;394.83;;;184.10;;
31224;SDS011;17847;31.524;74.366;2022-12-28T05:00:15;393.83;;;186.25;;
31224;SDS011;17847;31.524;74.366;2022-12-28T05:02:58;422.75;;;195.75;;
31224;SDS011;17847;31.524;74.366;2022-12-28T05:05:47;413.73;;;197.00;;
31224;SDS011;17847;31.524;74.366;2022-12-28T05:08:30;408.25;;;187.95;;
31224;SDS011;17847;31.524;74.366;2022-12-28T05:11:20;366.45;;;173.38;;
31224;SDS011;17847;31.524;74.366;2022-12-28T05:14:04;370.77;;;167.18;;
31224;SDS011;17847;31.524;74.366;2022-12-28T05:16:59;395.50;;;182.15;;
31224;SDS011;17847;31.524;74.366;2022-12-28T05:19:42;380.67;;;170.15;;
31224;SDS011;17847;31.524;74.366;2022-12-28T05:22:30;369.95;;;171.10;;
31224;SDS011;17847;31.524;74.366;2022-12-28T05:25:14;351.98;;;163.27;;
31224;SDS011;17847;31.524;74.366;2022-12-28T05:28:09;364.75;;;164.00;;
31224;SDS011;17847;31.524;74.366;2022-12-28T05:30:51;344.00;;;158.73;;
31224;SDS011;17847;31.524;74.366;2022-12-28T05:33:40;355.73;;;162.07;;
31224;SDS011;17847;31.524;74.366;2022-12-28T05:36:18;367.73;;;160.48;;
31224;SDS011;17847;31.524;74.366;2022-12-28T05:39:19;355.27;;;163.85;;
31224;SDS011;17847;31.524;74.366;2022-12-28T05:41:55;352.73;;;160.68;;
31224;SDS011;17847;31.524;74.366;2022-12-28T05:44:50;379.25;;;174.52;;
31224;SDS011;17847;31.524;74.366;2022-12-28T05:47:26;344.13;;;169.85;;
31224;SDS011;17847;31.524;74.366;2022-12-28T05:50:21;353.88;;;164.23;;
31224;SDS011;17847;31.524;74.366;2022-12-28T05:53:04;353.13;;;164.63;;
31224;SDS011;17847;31.524;74.366;2022-12-28T05:55:52;344.50;;;168.10;;
31224;SDS011;17847;31.524;74.366;2022-12-28T05:58:55;343.23;;;163.75;;
31224;SDS011;17847;31.524;74.366;2022-12-28T06:01:41;368.25;;;179.18;;
31224;SDS011;17847;31.524;74.366;2022-12-28T06:04:30;347.83;;;167.57;;
31224;SDS011;17847;31.524;74.366;2022-12-28T06:07:13;324.15;;;158.32;;
31224;SDS011;17847;31.524;74.366;2022-12-28T06:10:01;317.77;;;158.05;;
31224;SDS011;17847;31.524;74.366;2022-12-28T06:12:44;326.02;;;162.23;;
31224;SDS011;17847;31.524;74.366;2022-12-28T06:15:32;346.00;;;167.35;;
31224;SDS011;17847;31.524;74.366;2022-12-28T06:18:15;319.15;;;156.43;;
31224;SDS011;17847;31.524;74.366;2022-12-28T06:21:11;317.52;;;156.65;;
31224;SDS011;17847;31.524;74.366;2022-12-28T06:23:49;322.23;;;162.82;;
31224;SDS011;17847;31.524;74.366;2022-12-28T06:26:45;325.40;;;162.43;;
31224;SDS011;17847;31.524;74.366;2022-12-28T06:29:27;328.50;;;168.70;;
31224;SDS011;17847;31.524;74.366;2022-12-28T06:32:15;350.85;;;174.10;;
31224;SDS011;17847;31.524;74.366;2022-12-28T06:34:57;357.08;;;175.45;;
31224;SDS011;17847;31.524;74.366;2022-12-28T06:37:46;336.92;;;178.13;;
31224;SDS011;17847;31.524;74.366;2022-12-28T06:40:28;350.27;;;182.15;;
31224;SDS011;17847;31.524;74.366;2022-12-28T06:43:37;359.10;;;186.98;;
31224;SDS011;17847;31.524;74.366;2022-12-28T06:46:20;356.38;;;186.98;;
31224;SDS011;17847;31.524;74.366;2022-12-28T06:49:11;358.02;;;186.50;;
31224;SDS011;17847;31.524;74.366;2022-12-28T06:51:47;340.15;;;180.85;;
31224;SDS011;17847;31.524;74.366;2022-12-28T06:54:42;346.88;;;182.02;;
31224;SDS011;17847;31.524;74.366;2022-12-28T06:57:37;346.10;;;178.73;;
31224;SDS011;17847;31.524;74.366;2022-12-28T07:00:20;350.08;;;178.32;;
31224;SDS011;17847;31.524;74.366;2022-12-28T07:03:08;338.92;;;175.45;;
31224;SDS011;17847;31.524;74.366;2022-12-28T07:05:51;347.65;;;180.77;;
31224;SDS011;17847;31.524;74.366;2022-12-28T07:08:39;340.83;;;180.50;;
31224;SDS011;17847;31.524;74.366;2022-12-28T07:11:22;367.13;;;191.60;;
31224;SDS011;17847;31.524;74.366;2022-12-28T07:14:17;375.05;;;190.85;;
31224;SDS011;17847;31.524;74.366;2022-12-28T07:16:53;396.27;;;206.57;;
31224;SDS011;17847;31.524;74.366;2022-12-28T07:19:48;389.73;;;208.98;;
31224;SDS011;17847;31.524;74.366;2022-12-28T07:22:32;404.73;;;211.32;;
31224;SDS011;17847;31.524;74.366;2022-12-28T07:25:20;418.13;;;214.05;;
31224;SDS011;17847;31.524;74.366;2022-12-28T07:28:03;424.30;;;222.57;;
31224;SDS011;17847;31.524;74.366;2022-12-28T07:30:58;416.02;;;219.68;;
31224;SDS011;17847;31.524;74.366;2022-12-28T07:33:47;415.27;;;215.02;;
31224;SDS011;17847;31.524;74.366;2022-12-28T07:36:37;428.75;;;221.25;;
31224;SDS011;17847;31.524;74.366;2022-12-28T07:39:20;416.27;;;219.65;;
31224;SDS011;17847;31.524;74.366;2022-12-28T07:42:15;413.88;;;218.00;;
31224;SDS011;17847;31.524;74.366;2022-12-28T07:44:58;413.17;;;223.98;;
31224;SDS011;17847;31.524;74.366;2022-12-28T07:47:52;439.45;;;230.40;;
31224;SDS011;17847;31.524;74.366;2022-12-28T07:50:35;442.33;;;232.75;;
31224;SDS011;17847;31.524;74.366;2022-12-28T07:53:23;451.55;;;242.88;;
31224;SDS011;17847;31.524;74.366;2022-12-28T07:56:12;458.33;;;243.60;;
31224;SDS011;17847;31.524;74.366;2022-12-28T07:59:09;464.52;;;248.43;;
31224;SDS011;17847;31.524;74.366;2022-12-28T08:01:52;460.33;;;247.80;;
31224;SDS011;17847;31.524;74.366;2022-12-28T08:04:41;480.70;;;254.47;;
31224;SDS011;17847;31.524;74.366;2022-12-28T08:07:25;508.50;;;272.08;;
31224;SDS011;17847;31.524;74.366;2022-12-28T08:10:14;511.83;;;275.70;;
31224;SDS011;17847;31.524;74.366;2022-12-28T08:12:50;459.30;;;249.35;;
31224;SDS011;17847;31.524;74.366;2022-12-28T08:15:54;448.20;;;248.27;;
31224;SDS011;17847;31.524;74.366;2022-12-28T08:18:37;460.60;;;252.63;;
31224;SDS011;17847;31.524;74.366;2022-12-28T08:21:29;441.25;;;247.77;;
31224;SDS011;17847;31.524;74.366;2022-12-28T08:24:17;444.63;;;245.13;;
31224;SDS011;17847;31.524;74.366;2022-12-28T08:27:06;441.38;;;238.80;;
31224;SDS011;17847;31.524;74.366;2022-12-28T08:29:49;449.45;;;233.57;;
31224;SDS011;17847;31.524;74.366;2022-12-28T08:32:38;434.88;;;226.18;;
31224;SDS011;17847;31.524;74.366;2022-12-28T08:35:21;405.60;;;222.02;;
31224;SDS011;17847;31.524;74.366;2022-12-28T08:38:09;392.63;;;216.75;;
31224;SDS011;17847;31.524;74.366;2022-12-28T08:40:55;389.73;;;207.73;;
31224;SDS011;17847;31.524;74.366;2022-12-28T08:43:45;392.90;;;213.55;;
31224;SDS011;17847;31.524;74.366;2022-12-28T08:46:30;380.63;;;206.52;;
31224;SDS011;17847;31.524;74.366;2022-12-28T08:49:21;367.73;;;200.35;;
31224;SDS011;17847;31.524;74.366;2022-12-28T08:52:04;357.92;;;194.65;;
31224;SDS011;17847;31.524;74.366;2022-12-28T08:54:52;367.40;;;199.05;;
31224;SDS011;17847;31.524;74.366;2022-12-28T08:57:47;331.73;;;184.68;;
31224;SDS011;17847;31.524;74.366;2022-12-28T09:00:23;250.20;;;141.13;;
31224;SDS011;17847;31.524;74.366;2022-12-28T09:03:18;254.57;;;138.82;;
31224;SDS011;17847;31.524;74.366;2022-12-28T09:05:54;244.80;;;137.95;;
31224;SDS011;17847;31.524;74.366;2022-12-28T09:08:50;222.60;;;125.78;;
31224;SDS011;17847;31.524;74.366;2022-12-28T09:11:45;201.57;;;116.10;;
31224;SDS011;17847;31.524;74.366;2022-12-28T09:14:50;197.68;;;109.95;;
31224;SDS011;17847;31.524;74.366;2022-12-28T09:17:26;186.95;;;104.35;;
31224;SDS011;17847;31.524;74.366;2022-12-28T09:20:21;187.57;;;101.10;;
31224;SDS011;17847;31.524;74.366;2022-12-28T09:23:04;174.68;;;99.90;;
31224;SDS011;17847;31.524;74.366;2022-12-28T09:26:03;175.18;;;100.63;;
31224;SDS011;17847;31.524;74.366;2022-12-28T09:28:43;184.63;;;100.78;;
31224;SDS011;17847;31.524;74.366;2022-12-28T09:31:42;158.43;;;89.43;;
31224;SDS011;17847;31.524;74.366;2022-12-28T09:34:24;148.75;;;84.35;;
31224;SDS011;17847;31.524;74.366;2022-12-28T09:37:18;141.85;;;79.00;;
31224;SDS011;17847;31.524;74.366;2022-12-28T09:40:03;123.28;;;73.53;;
31224;SDS011;17847;31.524;74.366;2022-12-28T09:43:00;112.70;;;66.35;;
31224;SDS011;17847;31.524;74.366;2022-12-28T09:45:43;123.30;;;68.22;;
31224;SDS011;17847;31.524;74.366;2022-12-28T09:48:34;126.65;;;67.88;;
31224;SDS011;17847;31.524;74.366;2022-12-28T09:51:18;115.28;;;65.90;;
31224;SDS011;17847;31.524;74.366;2022-12-28T09:54:12;130.52;;;67.18;;
31224;SDS011;17847;31.524;74.366;2022-12-28T09:57:11;127.22;;;71.47;;
31224;SDS011;17847;31.524;74.366;2022-12-28T09:59:56;129.57;;;71.85;;
31224;SDS011;17847;31.524;74.366;2022-12-28T10:02:54;100.40;;;57.45;;
31224;SDS011;17847;31.524;74.366;2022-12-28T10:05:43;108.82;;;57.80;;
31224;SDS011;17847;31.524;74.366;2022-12-28T10:08:45;101.50;;;53.08;;
31224;SDS011;17847;31.524;74.366;2022-12-28T10:11:33;101.47;;;53.60;;
31224;SDS011;17847;31.524;74.366;2022-12-28T10:14:29;101.50;;;53.88;;
31224;SDS011;17847;31.524;74.366;2022-12-28T10:17:15;89.60;;;53.10;;
31224;SDS011;17847;31.524;74.366;2022-12-28T10:20:13;99.15;;;54.17;;
31224;SDS011;17847;31.524;74.366;2022-12-28T10:22:57;100.38;;;54.42;;
31224;SDS011;17847;31.524;74.366;2022-12-28T10:25:46;104.28;;;55.70;;
31224;SDS011;17847;31.524;74.366;2022-12-28T10:28:32;95.90;;;52.45;;
31224;SDS011;17847;31.524;74.366;2022-12-28T10:31:43;106.47;;;53.13;;
31224;SDS011;17847;31.524;74.366;2022-12-28T10:37:33;100.60;;;51.63;;
31224;SDS011;17847;31.524;74.366;2022-12-28T10:40:37;94.70;;;51.42;;
31224;SDS011;17847;31.524;74.366;2022-12-28T10:43:20;82.68;;;44.03;;
31224;SDS011;17847;31.524;74.366;2022-12-28T10:46:18;75.30;;;42.40;;
31224;SDS011;17847;31.524;74.366;2022-12-28T10:49:03;79.32;;;40.00;;
31224;SDS011;17847;31.524;74.366;2022-12-28T10:51:59;76.78;;;38.85;;
31224;SDS011;17847;31.524;74.366;2022-12-28T10:58:18;77.38;;;39.42;;
31224;SDS011;17847;31.524;74.366;2022-12-28T11:09:44;92.13;;;46.45;;
31224;SDS011;17847;31.524;74.366;2022-12-28T11:12:42;83.00;;;44.08;;
31224;SDS011;17847;31.524;74.366;2022-12-28T11:15:29;82.22;;;43.47;;
31224;SDS011;17847;31.524;74.366;2022-12-28T11:18:19;87.65;;;46.67;;
31224;SDS011;17847;31.524;74.366;2022-12-28T11:20:56;91.82;;;48.63;;
31224;SDS011;17847;31.524;74.366;2022-12-28T11:23:51;84.57;;;46.97;;
31224;SDS011;17847;31.524;74.366;2022-12-28T11:26:27;103.25;;;49.85;;
31224;SDS011;17847;31.524;74.366;2022-12-28T11:29:23;98.60;;;50.63;;
31224;SDS011;17847;31.524;74.366;2022-12-28T11:32:00;93.85;;;45.72;;
31224;SDS011;17847;31.524;74.366;2022-12-28T11:35:00;89.90;;;47.33;;
31224;SDS011;17847;31.524;74.366;2022-12-28T11:37:40;86.13;;;47.28;;
31224;SDS011;17847;31.524;74.366;2022-12-28T11:49:27;98.32;;;48.67;;
31224;SDS011;17847;31.524;74.366;2022-12-28T12:07:26;90.80;;;51.47;;
31224;SDS011;17847;31.524;74.366;2022-12-28T12:16:13;104.75;;;54.08;;
31224;SDS011;17847;31.524;74.366;2022-12-28T12:19:07;106.93;;;52.45;;
31224;SDS011;17847;31.524;74.366;2022-12-28T12:25:14;113.60;;;59.28;;
31224;SDS011;17847;31.524;74.366;2022-12-28T12:27:58;112.82;;;57.33;;
31224;SDS011;17847;31.524;74.366;2022-12-28T12:31:01;117.90;;;58.55;;
31224;SDS011;17847;31.524;74.366;2022-12-28T12:33:47;113.80;;;60.40;;
31224;SDS011;17847;31.524;74.366;2022-12-28T12:36:45;124.05;;;58.08;;
31224;SDS011;17847;31.524;74.366;2022-12-28T12:39:51;143.85;;;59.75;;
31224;SDS011;17847;31.524;74.366;2022-12-28T12:49:24;137.68;;;63.47;;
31224;SDS011;17847;31.524;74.366;2022-12-28T12:58:20;127.82;;;69.68;;
31224;SDS011;17847;31.524;74.366;2022-12-28T13:01:18;132.77;;;70.32;;
31224;SDS011;17847;31.524;74.366;2022-12-28T13:04:23;143.23;;;70.03;;
31224;SDS011;17847;31.524;74.366;2022-12-28T13:07:16;132.82;;;74.40;;
31224;SDS011;17847;31.524;74.366;2022-12-28T13:10:02;138.38;;;74.30;;
31224;SDS011;17847;31.524;74.366;2022-12-28T13:12:56;151.45;;;76.30;;
31224;SDS011;17847;31.524;74.366;2022-12-28T13:15:42;142.38;;;73.30;;
31224;SDS011;17847;31.524;74.366;2022-12-28T13:18:31;152.48;;;76.43;;
31224;SDS011;17847;31.524;74.366;2022-12-28T13:21:19;139.40;;;75.43;;
31224;SDS011;17847;31.524;74.366;2022-12-28T13:27:13;139.38;;;78.35;;
31224;SDS011;17847;31.524;74.366;2022-12-28T13:30:16;141.55;;;74.70;;
31224;SDS011;17847;31.524;74.366;2022-12-28T13:33:00;137.70;;;73.63;;
31224;SDS011;17847;31.524;74.366;2022-12-28T13:35:50;153.48;;;75.32;;
31224;SDS011;17847;31.524;74.366;2022-12-28T13:39:04;145.90;;;76.05;;
31224;SDS011;17847;31.524;74.366;2022-12-28T13:42:02;164.27;;;76.72;;
31224;SDS011;17847;31.524;74.366;2022-12-28T13:44:41;154.10;;;78.32;;
31224;SDS011;17847;31.524;74.366;2022-12-28T13:47:42;156.25;;;75.93;;
31224;SDS011;17847;31.524;74.366;2022-12-28T13:50:29;152.98;;;77.68;;
31224;SDS011;17847;31.524;74.366;2022-12-28T13:53:21;152.85;;;78.18;;
31224;SDS011;17847;31.524;74.366;2022-12-28T13:56:01;155.27;;;79.55;;
31224;SDS011;17847;31.524;74.366;2022-12-28T13:59:17;151.05;;;78.28;;
31224;SDS011;17847;31.524;74.366;2022-12-28T14:01:55;150.73;;;78.90;;
31224;SDS011;17847;31.524;74.366;2022-12-28T14:04:50;167.20;;;78.40;;
31224;SDS011;17847;31.524;74.366;2022-12-28T14:07:28;154.75;;;81.43;;
31224;SDS011;17847;31.524;74.366;2022-12-28T14:10:24;148.52;;;80.03;;
31224;SDS011;17847;31.524;74.366;2022-12-28T14:13:08;145.95;;;81.93;;
31224;SDS011;17847;31.524;74.366;2022-12-28T14:15:58;169.18;;;81.75;;
31224;SDS011;17847;31.524;74.366;2022-12-28T14:18:42;158.20;;;82.53;;
31224;SDS011;17847;31.524;74.366;2022-12-28T14:21:40;159.50;;;83.80;;
31224;SDS011;17847;31.524;74.366;2022-12-28T14:24:25;174.57;;;86.72;;
31224;SDS011;17847;31.524;74.366;2022-12-28T14:27:15;183.55;;;89.60;;
31224;SDS011;17847;31.524;74.366;2022-12-28T14:29:58;166.70;;;87.35;;
31224;SDS011;17847;31.524;74.366;2022-12-28T14:32:47;171.90;;;89.63;;
31224;SDS011;17847;31.524;74.366;2022-12-28T14:35:30;174.35;;;89.28;;
31224;SDS011;17847;31.524;74.366;2022-12-28T14:38:20;189.18;;;94.47;;
31224;SDS011;17847;31.524;74.366;2022-12-28T14:41:06;200.13;;;97.63;;
31224;SDS011;17847;31.524;74.366;2022-12-28T14:44:31;210.98;;;98.97;;
31224;SDS011;17847;31.524;74.366;2022-12-28T14:47:34;188.00;;;98.40;;
31224;SDS011;17847;31.524;74.366;2022-12-28T14:50:29;193.75;;;99.20;;
31224;SDS011;17847;31.524;74.366;2022-12-28T14:53:13;202.48;;;97.65;;
31224;SDS011;17847;31.524;74.366;2022-12-28T14:56:11;204.07;;;102.82;;
31224;SDS011;17847;31.524;74.366;2022-12-28T14:59:20;199.75;;;104.72;;
31224;SDS011;17847;31.524;74.366;2022-12-28T15:02:04;209.05;;;110.05;;
31224;SDS011;17847;31.524;74.366;2022-12-28T15:05:00;237.98;;;120.38;;
31224;SDS011;17847;31.524;74.366;2022-12-28T15:07:37;237.52;;;121.80;;
31224;SDS011;17847;31.524;74.366;2022-12-28T15:10:33;236.43;;;121.22;;
31224;SDS011;17847;31.524;74.366;2022-12-28T15:13:21;254.75;;;123.45;;
31224;SDS011;17847;31.524;74.366;2022-12-28T15:16:12;237.95;;;124.47;;
31224;SDS011;17847;31.524;74.366;2022-12-28T15:18:59;257.15;;;123.38;;
31224;SDS011;17847;31.524;74.366;2022-12-28T15:21:47;224.98;;;122.63;;
31224;SDS011;17847;31.524;74.366;2022-12-28T15:24:23;242.23;;;118.93;;
31224;SDS011;17847;31.524;74.366;2022-12-28T15:27:19;246.50;;;123.90;;
31224;SDS011;17847;31.524;74.366;2022-12-28T15:30:01;258.52;;;129.32;;
31224;SDS011;17847;31.524;74.366;2022-12-28T15:32:58;259.65;;;127.30;;
31224;SDS011;17847;31.524;74.366;2022-12-28T15:35:41;244.18;;;124.22;;
31224;SDS011;17847;31.524;74.366;2022-12-28T15:38:29;236.23;;;122.60;;
31224;SDS011;17847;31.524;74.366;2022-12-28T15:41:12;249.80;;;124.35;;
31224;SDS011;17847;31.524;74.366;2022-12-28T15:44:20;254.15;;;125.82;;
31224;SDS011;17847;31.524;74.366;2022-12-28T15:47:02;246.93;;;126.07;;
31224;SDS011;17847;31.524;74.366;2022-12-28T15:49:52;264.33;;;129.18;;
31224;SDS011;17847;31.524;74.366;2022-12-28T15:52:36;266.15;;;138.95;;
31224;SDS011;17847;31.524;74.366;2022-12-28T15:55:26;304.45;;;153.48;;
31224;SDS011;17847;31.524;74.366;2022-12-28T15:58:21;312.35;;;163.75;;
31224;SDS011;17847;31.524;74.366;2022-12-28T16:01:04;299.92;;;158.23;;
31224;SDS011;17847;31.524;74.366;2022-12-28T16:04:00;312.50;;;163.13;;
31224;SDS011;17847;31.524;74.366;2022-12-28T16:06:43;290.25;;;154.27;;
31224;SDS011;17847;31.524;74.366;2022-12-28T16:09:32;295.92;;;152.65;;
31224;SDS011;17847;31.524;74.366;2022-12-28T16:12:14;285.80;;;151.23;;
31224;SDS011;17847;31.524;74.366;2022-12-28T16:15:04;300.80;;;155.80;;
31224;SDS011;17847;31.524;74.366;2022-12-28T16:17:46;301.45;;;152.93;;
31224;SDS011;17847;31.524;74.366;2022-12-28T16:20:36;287.65;;;155.52;;
31224;SDS011;17847;31.524;74.366;2022-12-28T16:23:18;306.30;;;161.18;;
31224;SDS011;17847;31.524;74.366;2022-12-28T16:26:07;323.55;;;162.68;;
31224;SDS011;17847;31.524;74.366;2022-12-28T16:28:51;315.27;;;163.93;;
31224;SDS011;17847;31.524;74.366;2022-12-28T16:31:52;306.75;;;161.82;;
31224;SDS011;17847;31.524;74.366;2022-12-28T16:34:29;322.20;;;165.85;;
31224;SDS011;17847;31.524;74.366;2022-12-28T16:37:24;318.25;;;162.80;;
31224;SDS011;17847;31.524;74.366;2022-12-28T16:40:06;320.42;;;168.85;;
31224;SDS011;17847;31.524;74.366;2022-12-28T16:42:56;323.50;;;167.27;;
31224;SDS011;17847;31.524;74.366;2022-12-28T16:45:35;309.08;;;165.98;;
31224;SDS011;17847;31.524;74.366;2022-12-28T16:48:31;309.95;;;162.65;;
31224;SDS011;17847;31.524;74.366;2022-12-28T16:51:07;309.15;;;166.50;;
31224;SDS011;17847;31.524;74.366;2022-12-28T16:54:03;311.42;;;165.65;;
31224;SDS011;17847;31.524;74.366;2022-12-28T16:56:40;289.48;;;160.55;;
31224;SDS011;17847;31.524;74.366;2022-12-28T16:59:36;312.30;;;162.60;;
31224;SDS011;17847;31.524;74.366;2022-12-28T17:02:19;317.63;;;164.77;;
31224;SDS011;17847;31.524;74.366;2022-12-28T17:05:14;308.48;;;165.93;;
31224;SDS011;17847;31.524;74.366;2022-12-28T17:07:56;324.77;;;170.70;;
31224;SDS011;17847;31.524;74.366;2022-12-28T17:10:52;310.80;;;165.80;;
31224;SDS011;17847;31.524;74.366;2022-12-28T17:13:35;320.63;;;166.13;;
31224;SDS011;17847;31.524;74.366;2022-12-28T17:16:24;333.65;;;176.48;;
31224;SDS011;17847;31.524;74.366;2022-12-28T17:19:07;321.02;;;170.25;;
31224;SDS011;17847;31.524;74.366;2022-12-28T17:21:55;320.85;;;173.18;;
31224;SDS011;17847;31.524;74.366;2022-12-28T17:24:38;330.73;;;172.90;;